Time;durP1;ratioP1;P1;durP2;ratioP2;P2;SDS_P1;SDS_P2;PMS_P1;PMS_P2;Temp;Humidity;BMP_temperature;BMP_pressure;BME280_temperature;BME280_humidity;BME280_pressure;Samples;Min_cycle;Max_cycle;Signal;HPM_P1;HPM_P2
2022/01/31 00:00:52;;;;;;;14.38;12.88;;;;;;;18.94;43.07;101320.69;4992503;28;20050;-83
2022/01/31 00:03:19;;;;;;;15.27;13.60;;;;;;;18.93;43.01;101317.16;4994374;28;20046;-83
2022/01/31 00:05:47;;;;;;;16.27;13.98;;;;;;;18.93;42.78;101311.81;4994035;28;20042;-83
2022/01/31 00:08:21;;;;;;;15.43;13.88;;;;;;;18.93;42.79;101314.47;4994256;28;20050;-83
2022/01/31 00:10:49;;;;;;;;;;;;;;;18.94;42.68;101308.13;4993264;28;20046;-83
2022/01/31 00:13:22;;;;;;;15.95;13.45;;;;;;;18.94;42.55;101308.13;4993496;28;19921;-83
2022/01/31 00:15:54;;;;;;;15.82;14.13;;;;;;;18.93;42.60;101305.59;4994215;28;20061;-83
2022/01/31 00:18:22;;;;;;;15.38;13.82;;;;;;;18.93;42.51;101302.91;4994181;28;20053;-82
2022/01/31 00:20:50;;;;;;;16.13;13.98;;;;;;;18.93;42.46;101298.38;4993799;28;20113;-82
2022/01/31 00:23:17;;;;;;;17.38;14.35;;;;;;;18.94;42.55;101301.91;4993895;28;20381;-82
2022/01/31 00:25:45;;;;;;;17.00;13.90;;;;;;;18.94;42.32;101300.09;4993825;28;20046;-82
2022/01/31 00:28:13;;;;;;;16.10;14.40;;;;;;;18.94;42.31;101297.41;4991961;28;20061;-82
2022/01/31 00:30:41;;;;;;;15.63;14.02;;;;;;;18.93;42.26;101293.03;4993995;28;20042;-82
2022/01/31 00:33:09;;;;;;;16.30;14.68;;;;;;;18.94;42.08;101292.03;4993626;28;20046;-82
2022/01/31 00:35:36;;;;;;;17.65;15.02;;;;;;;18.95;42.13;101303.63;4992235;28;20393;-82
2022/01/31 00:38:03;;;;;;;16.90;15.00;;;;;;;18.95;42.24;101287.53;4993771;28;20057;-82
2022/01/31 00:40:32;;;;;;;15.43;13.90;;;;;;;18.94;42.12;101281.31;4953545;28;20055;-82
2022/01/31 00:42:59;;;;;;;18.00;15.00;;;;;;;18.95;42.10;101260.69;4953215;28;20498;-82
2022/01/31 00:45:29;;;;;;;17.27;14.43;;;;;;;18.95;41.95;101274.97;4954692;28;20046;-82
2022/01/31 00:48:05;;;;;;;15.70;14.05;;;;;;;18.96;42.00;101262.44;4953646;28;20399;-82
2022/01/31 00:50:39;;;;;;;14.90;13.40;;;;;;;18.94;42.05;101259.84;4954741;29;20047;-82
2022/01/31 00:53:07;;;;;;;17.13;15.25;;;;;;;18.96;42.03;101254.38;4954980;28;20081;-82
2022/01/31 00:55:35;;;;;;;16.25;14.63;;;;;;;18.96;41.94;101259.75;4954041;28;20526;-82
2022/01/31 00:58:02;;;;;;;16.05;14.40;;;;;;;18.97;41.92;101250.72;4952586;28;20530;-82
2022/01/31 01:00:30;;;;;;;17.83;14.75;;;;;;;18.97;42.02;101248.03;4952944;28;20384;-82
2022/01/31 01:02:57;;;;;;;16.58;14.63;;;;;;;18.97;41.81;101248.03;4952429;28;20055;-82
2022/01/31 01:05:25;;;;;;;18.30;14.55;;;;;;;18.97;41.69;101248.03;4952400;28;20051;-82
2022/01/31 01:07:52;;;;;;;15.82;14.10;;;;;;;18.95;41.68;101242.75;4954091;28;20051;-82
2022/01/31 01:10:19;;;;;;;15.60;14.10;;;;;;;18.96;41.82;101228.41;4952686;29;20047;-82
2022/01/31 01:12:48;;;;;;;16.13;14.45;;;;;;;18.97;41.84;101232.78;4954046;28;20054;-82
2022/01/31 01:15:16;;;;;;;15.93;14.43;;;;;;;18.97;41.93;101239.97;4954213;28;20054;-82
2022/01/31 01:17:45;;;;;;;16.65;13.90;;;;;;;18.97;41.77;101242.66;4953463;28;20372;-82
2022/01/31 01:20:15;;;;;;;15.80;14.18;;;;;;;18.97;41.83;101240.84;4952451;28;20058;-82
2022/01/31 01:22:45;;;;;;;15.55;13.95;;;;;;;18.96;41.75;101235.59;4954379;28;20043;-82
2022/01/31 01:25:14;;;;;;;16.27;14.40;;;;;;;18.97;41.73;101240.84;4951878;28;20047;-82
2022/01/31 01:27:43;;;;;;;16.95;15.20;;;;;;;18.97;41.73;101223.88;4952290;28;20058;-82
2022/01/31 01:30:13;;;;;;;16.40;14.70;;;;;;;18.97;41.68;101230.09;4952025;29;20510;-82
2022/01/31 01:35:30;;;;;;;15.52;13.93;;;;;;;18.97;41.51;101222.06;4952136;29;20074;-82
2022/01/31 01:38:04;;;;;;;14.40;13.00;;;;;;;18.97;41.59;101195.22;4954275;29;20047;-82
2022/01/31 01:40:38;;;;;;;16.35;14.32;;;;;;;18.96;41.52;101188.16;4990641;28;20050;-82
2022/01/31 01:43:08;;;;;;;16.77;13.82;;;;;;;18.98;41.60;101185.34;4990562;28;20077;-83
2022/01/31 01:45:37;;;;;;;16.85;14.60;;;;;;;18.97;41.50;101184.50;4990173;28;20065;-83
2022/01/31 01:48:06;;;;;;;16.30;13.80;;;;;;;18.98;41.65;101186.19;4990671;28;20072;-82
2022/01/31 01:50:37;;;;;;;15.07;13.70;;;;;;;18.98;41.61;101169.25;4989893;28;20061;-82
2022/01/31 01:53:06;;;;;;;15.20;13.65;;;;;;;18.97;41.55;101162.19;4990446;28;20059;-82
2022/01/31 01:55:34;;;;;;;17.25;14.30;;;;;;;18.97;41.46;101163.03;4990572;28;20050;-83
2022/01/31 01:58:05;;;;;;;15.57;13.95;;;;;;;18.97;41.49;101163.03;4990414;28;20050;-82
2022/01/31 02:00:49;;;;;;;17.17;14.80;;;;;;;18.98;41.46;101163.88;4990647;28;20508;-83
2022/01/31 02:03:22;;;;;;;15.70;14.13;;;;;;;18.98;41.48;101166.56;4992551;28;20513;-84
2022/01/31 02:05:50;;;;;;;15.63;14.05;;;;;;;18.96;41.46;101158.63;4990722;28;20508;-84
2022/01/31 02:08:18;;;;;;;15.38;13.82;;;;;;;18.97;41.44;101152.28;4989942;28;20414;-84
2022/01/31 02:10:47;;;;;;;15.77;13.57;;;;;;;18.96;41.15;101147.91;4991736;28;20057;-84
2022/01/31 02:13:26;;;;;;;15.55;13.95;;;;;;;18.96;41.28;101142.53;5022752;28;20050;-84
2022/01/31 02:16:13;;;;;;;15.85;14.18;;;;;;;18.96;41.09;101144.38;4992475;28;20058;-84
2022/01/31 02:18:50;;;;;;;14.77;13.27;;;;;;;18.97;41.12;101140.72;5009205;28;20494;-84
2022/01/31 02:21:53;;;;;;;15.07;13.68;;;;;;;18.97;40.97;101135.34;4991446;28;20226;-84
2022/01/31 02:24:53;;;;;;;16.67;14.90;;;;;;;18.95;41.04;101122.03;4996465;28;20046;-83
2022/01/31 02:27:39;;;;;;;15.38;13.77;;;;;;;18.96;41.03;101120.22;4998157;28;20046;-84
2022/01/31 02:30:15;;;;;;;16.50;14.80;;;;;;;18.96;40.84;101113.03;4989566;28;20050;-83
2022/01/31 02:32:45;;;;;;;15.60;14.07;;;;;;;18.97;40.93;101105.84;4989855;28;20054;-83
2022/01/31 02:35:17;;;;;;;16.35;14.50;;;;;;;18.96;40.88;101094.25;4990172;28;20054;-83
2022/01/31 02:37:44;;;;;;;16.05;14.40;;;;;;;18.96;40.79;101086.19;4990537;28;20051;-83
2022/01/31 02:40:27;;;;;;;17.27;15.48;;;;;;;18.97;40.67;101087.06;4989929;28;20055;-82
2022/01/31 02:42:57;;;;;;;18.90;15.63;;;;;;;18.97;40.72;101092.41;5022299;28;20058;-83
2022/01/31 02:45:27;;;;;;;16.90;15.10;;;;;;;18.96;40.71;101088.88;4989830;28;20454;-83
2022/01/31 02:48:01;;;;;;;16.55;14.02;;;;;;;18.97;40.68;101079.00;4991857;28;20046;-83
2022/01/31 02:50:31;;;;;;;17.00;14.27;;;;;;;18.96;40.58;101074.63;5007967;28;20061;-83
2022/01/31 02:53:10;;;;;;;17.00;14.18;;;;;;;18.97;40.56;101073.63;4973723;28;20401;-83
2022/01/31 02:55:42;;;;;;;15.25;13.65;;;;;;;18.96;40.42;101067.41;4989832;28;20042;-82
2022/01/31 02:58:12;;;;;;;16.17;14.53;;;;;;;18.97;40.46;101060.22;4991505;28;20050;-82
2022/01/31 03:00:40;;;;;;;15.57;14.07;;;;;;;18.98;40.38;101054.72;4988635;28;20287;-82
2022/01/31 03:03:13;;;;;;;16.08;14.48;;;;;;;18.97;40.43;101039.59;4989233;28;20509;-82
2022/01/31 03:05:41;;;;;;;16.60;14.15;;;;;;;18.97;40.41;101038.75;5005830;28;20046;-82
2022/01/31 03:08:10;;;;;;;15.93;14.13;;;;;;;18.97;40.34;101033.41;4991749;28;20050;-82
2022/01/31 03:10:38;;;;;;;15.68;14.10;;;;;;;18.97;40.40;101028.88;4990623;28;20073;-82
2022/01/31 03:13:06;;;;;;;16.05;14.45;;;;;;;18.97;40.40;101025.34;4989733;28;20062;-82
2022/01/31 03:15:41;;;;;;;16.23;14.63;;;;;;;18.98;40.34;101029.72;4989644;28;20054;-82
2022/01/31 03:18:44;;;;;;;15.07;13.43;;;;;;;18.97;40.17;101022.66;4970002;28;20062;-82
2022/01/31 03:21:12;;;;;;;15.10;13.57;;;;;;;18.97;40.32;101019.97;4955152;28;20050;-83
2022/01/31 03:23:40;;;;;;;16.20;14.48;;;;;;;18.97;40.24;101012.78;4953057;28;20055;-83
2022/01/31 03:26:08;;;;;;;14.68;13.18;;;;;;;18.96;40.25;101021.81;4968567;28;20050;-83
2022/01/31 03:28:35;;;;;;;16.05;14.50;;;;;;;18.97;40.07;101022.66;4954136;28;20062;-83
2022/01/31 03:31:03;;;;;;;16.60;13.68;;;;;;;18.96;40.11;101019.13;4952964;28;20055;-83
2022/01/31 03:33:32;;;;;;;16.92;13.70;;;;;;;18.96;40.10;101013.75;4969645;28;20058;-83
2022/01/31 03:36:00;;;;;;;15.65;14.02;;;;;;;18.96;40.14;101010.22;4952716;28;20058;-83
2022/01/31 03:38:27;;;;;;;15.25;13.65;;;;;;;18.96;40.19;101010.22;4952833;28;20050;-83
2022/01/31 03:40:54;;;;;;;15.88;14.27;;;;;;;18.97;39.99;100998.50;4970811;28;20398;-83
2022/01/31 03:43:22;;;;;;;14.73;13.23;;;;;;;18.96;40.36;101011.09;4968619;28;20417;-83
2022/01/31 03:45:52;;;;;;;14.93;13.20;;;;;;;18.94;40.06;101002.28;4954672;28;20494;-83
2022/01/31 03:48:24;;;;;;;15.77;13.63;;;;;;;18.95;40.03;101009.34;4969407;28;20051;-83
2022/01/31 03:50:55;;;;;;;14.98;13.50;;;;;;;18.95;39.90;101005.81;4952787;28;20063;-83
2022/01/31 03:53:26;;;;;;;16.08;14.20;;;;;;;18.94;40.17;100991.56;4969490;28;20057;-83
2022/01/31 03:55:54;;;;;;;15.48;13.98;;;;;;;18.94;40.01;100985.34;5006537;28;20050;-83
2022/01/31 03:58:22;;;;;;;16.20;14.60;;;;;;;18.95;39.94;100989.72;4990799;28;20054;-83
2022/01/31 04:01:00;;;;;;;15.18;13.68;;;;;;;18.94;39.83;100979.97;4988917;28;20405;-84
2022/01/31 04:03:28;;;;;;;13.90;12.55;;;;;;;18.93;39.87;100994.38;4990836;28;20069;-83
2022/01/31 04:05:56;;;;;;;15.63;13.98;;;;;;;18.94;40.08;100998.75;4990171;28;20414;-84
2022/01/31 04:08:23;;;;;;;14.32;12.88;;;;;;;18.94;39.76;100988.03;4990239;28;20054;-84
2022/01/31 04:10:50;;;;;;;15.27;13.10;;;;;;;18.93;39.71;100970.22;4990611;28;20054;-83
2022/01/31 04:13:18;;;;;;;15.35;13.75;;;;;;;18.94;39.73;100963.88;4990530;28;20058;-83
2022/01/31 04:15:45;;;;;;;15.00;13.57;;;;;;;18.94;39.62;100955.84;4990243;28;20054;-83
2022/01/31 04:18:13;;;;;;;15.55;13.80;;;;;;;18.94;39.41;100947.78;4990258;28;20051;-83
2022/01/31 04:20:41;;;;;;;15.65;14.13;;;;;;;18.95;39.22;100957.53;4990344;28;20054;-83
2022/01/31 04:23:14;;;;;;;14.98;13.55;;;;;;;18.93;39.32;100941.56;4992701;28;20073;-83
2022/01/31 04:25:54;;;;;;;16.10;14.38;;;;;;;18.95;39.32;100941.44;4995526;28;20401;-83
2022/01/31 04:31:00;;;;;;;15.88;14.18;;;;;;;18.95;39.21;100933.38;4993289;28;20054;-83
2022/01/31 04:33:28;;;;;;;14.90;13.40;;;;;;;18.94;39.38;100913.75;4999585;28;20422;-83
2022/01/31 04:35:55;;;;;;;15.60;13.85;;;;;;;18.95;39.16;100909.25;4993573;28;20058;-83
2022/01/31 04:38:24;;;;;;;15.15;13.63;;;;;;;18.94;39.05;100919.13;4993293;28;20054;-83
2022/01/31 04:40:51;;;;;;;14.50;13.02;;;;;;;18.94;39.08;100913.75;4993300;28;20137;-83
2022/01/31 04:43:19;;;;;;;15.82;14.23;;;;;;;18.94;39.00;100891.44;4993079;28;20065;-83
2022/01/31 04:45:47;;;;;;;15.07;13.50;;;;;;;18.94;39.26;100886.09;4993199;28;20050;-83
2022/01/31 04:48:17;;;;;;;14.43;13.02;;;;;;;18.94;39.17;100872.66;4993099;28;20050;-83
2022/01/31 04:50:45;;;;;;;15.48;13.52;;;;;;;18.94;39.10;100870.00;4993156;28;20148;-83
2022/01/31 04:53:14;;;;;;;16.80;14.68;;;;;;;18.94;39.05;100867.31;4992247;28;20054;-82
2022/01/31 04:55:41;;;;;;;15.55;13.85;;;;;;;18.94;38.97;100853.88;4993194;28;20047;-83
2022/01/31 04:58:09;;;;;;;15.38;13.80;;;;;;;18.95;38.99;100866.31;4992998;28;20054;-83
2022/01/31 05:00:38;;;;;;;16.52;14.15;;;;;;;18.94;39.11;100864.63;4993144;28;20061;-83
2022/01/31 05:03:11;;;;;;;14.48;13.07;;;;;;;18.94;38.99;100868.16;4993395;28;20057;-82
2022/01/31 05:05:40;;;;;;;13.82;12.50;;;;;;;18.94;39.02;100853.88;4999681;28;20410;-82
2022/01/31 05:08:08;;;;;;;15.02;13.30;;;;;;;18.95;38.94;100847.53;4993613;28;20054;-82
2022/01/31 05:10:42;;;;;;;15.75;13.45;;;;;;;18.94;39.11;100832.44;4992934;28;20055;-82
2022/01/31 05:13:11;;;;;;;16.17;14.05;;;;;;;18.95;39.04;100823.41;4999090;28;20050;-83
2022/01/31 05:15:39;;;;;;;15.30;13.80;;;;;;;18.94;38.97;100821.69;4993451;28;20066;-83
2022/01/31 05:18:07;;;;;;;15.75;14.18;;;;;;;18.93;39.33;100818.16;4992959;28;20054;-83
2022/01/31 05:20:35;;;;;;;16.00;14.30;;;;;;;18.94;39.06;100829.75;4992749;28;20077;-84
2022/01/31 05:23:05;;;;;;;18.20;13.73;;;;;;;18.95;39.06;100828.75;4992600;28;20410;-84
2022/01/31 05:25:33;;;;;;;16.45;13.55;;;;;;;18.94;39.07;100813.66;4992935;28;20058;-83
2022/01/31 05:28:01;;;;;;;15.48;13.63;;;;;;;18.94;39.13;100824.38;4993121;28;20385;-83
2022/01/31 05:30:29;;;;;;;14.77;13.32;;;;;;;18.94;39.21;100801.09;4991441;28;20061;-83
2022/01/31 05:32:56;;;;;;;14.55;13.05;;;;;;;18.93;39.02;100795.88;4992148;28;20068;-82
2022/01/31 05:35:24;;;;;;;17.08;13.93;;;;;;;18.93;38.97;100790.50;4991894;28;20482;-83
2022/01/31 05:37:51;;;;;;;15.60;14.00;;;;;;;18.93;38.85;100791.34;4992190;28;20094;-82
2022/01/31 05:40:18;;;;;;;17.88;14.25;;;;;;;18.93;38.97;100782.44;4992133;28;20054;-82
2022/01/31 05:42:46;;;;;;;16.13;14.45;;;;;;;18.92;38.93;100788.78;4993051;28;20372;-82
2022/01/31 05:45:13;;;;;;;16.50;13.43;;;;;;;18.92;38.81;100783.41;4992474;28;20054;-83
2022/01/31 05:47:41;;;;;;;14.43;12.98;;;;;;;18.92;38.96;100761.94;4992279;28;20050;-83
2022/01/31 05:50:10;;;;;;;16.88;14.25;;;;;;;18.91;38.92;100761.09;4992216;28;20058;-83
2022/01/31 05:52:37;;;;;;;13.65;12.23;;;;;;;18.90;38.63;100755.88;4992214;28;20378;-84
2022/01/31 05:55:06;;;;;;;15.65;13.95;;;;;;;18.91;38.77;100762.94;4991957;28;20061;-82
2022/01/31 05:57:33;;;;;;;15.13;13.63;;;;;;;18.90;38.60;100775.50;4992303;28;20043;-83
2022/01/31 06:00:06;;;;;;;15.23;13.63;;;;;;;18.90;38.73;100771.97;4992668;28;20058;-83
2022/01/31 06:02:35;;;;;;;14.47;12.97;;;;;;;18.89;38.57;100764.91;4992640;28;20138;-83
2022/01/31 06:05:04;;;;;;;16.45;13.63;;;;;;;18.90;38.69;100755.88;4992131;28;20050;-82
2022/01/31 06:07:31;;;;;;;16.67;13.85;;;;;;;18.88;38.62;100755.16;4992040;28;20046;-82
2022/01/31 06:10:00;;;;;;;15.60;14.00;;;;;;;18.87;38.63;100748.09;4991654;28;20054;-83
2022/01/31 06:12:27;;;;;;;14.93;13.20;;;;;;;18.87;38.59;100746.25;4991659;28;20054;-83
2022/01/31 06:14:54;;;;;;;16.13;13.18;;;;;;;18.87;38.62;100743.56;4991776;28;20055;-83
2022/01/31 06:17:22;;;;;;;14.48;13.02;;;;;;;18.87;38.82;100748.94;4991559;28;20054;-83
2022/01/31 06:19:49;;;;;;;14.23;12.73;;;;;;;18.86;38.76;100744.56;4992023;28;20058;-83
2022/01/31 06:22:16;;;;;;;15.27;13.38;;;;;;;18.84;38.62;100734.94;4991594;28;20046;-82
2022/01/31 06:24:44;;;;;;;14.60;13.10;;;;;;;18.84;38.37;100732.25;4991414;28;20047;-83
2022/01/31 06:27:16;;;;;;;14.90;13.30;;;;;;;18.85;38.64;100728.59;4991041;28;20053;-83
2022/01/31 06:29:46;;;;;;;14.63;13.00;;;;;;;18.86;38.58;100736.50;4991174;28;20061;-83
2022/01/31 06:32:25;;;;;;;14.63;13.18;;;;;;;18.84;38.71;100738.50;4991702;28;20077;-83
2022/01/31 06:34:53;;;;;;;14.93;13.20;;;;;;;18.85;38.55;100728.59;4991464;28;20061;-84
2022/01/31 06:37:20;;;;;;;15.35;13.75;;;;;;;18.85;38.60;100737.50;4991212;28;20042;-85
2022/01/31 06:39:48;;;;;;;14.25;12.75;;;;;;;18.85;38.53;100756.28;4991099;28;20061;-85
2022/01/31 06:42:15;;;;;;;15.95;14.35;;;;;;;18.85;38.68;100736.66;4989187;28;20061;-85
2022/01/31 06:44:42;;;;;;;16.60;13.70;;;;;;;18.85;38.62;100733.97;4990862;28;20477;-84
2022/01/31 06:47:10;;;;;;;15.68;13.95;;;;;;;18.85;38.41;100731.28;4991476;28;20046;-84
2022/01/31 06:49:37;;;;;;;14.43;12.95;;;;;;;18.85;38.46;100720.56;4991112;28;20065;-84
2022/01/31 06:52:05;;;;;;;15.18;13.65;;;;;;;18.86;38.37;100735.66;4990244;28;20058;-83
2022/01/31 06:54:33;;;;;;;14.57;13.05;;;;;;;18.86;38.52;100738.34;4991194;28;20050;-82
2022/01/31 06:57:01;;;;;;;16.77;13.75;;;;;;;18.83;38.54;100728.72;4991670;28;20043;-82
2022/01/31 06:59:28;;;;;;;15.00;13.45;;;;;;;18.83;38.64;100741.28;4991332;28;20057;-83
2022/01/31 07:02:00;;;;;;;15.05;13.45;;;;;;;18.83;38.58;100741.28;4991508;28;20062;-83
2022/01/31 07:04:28;;;;;;;14.63;13.20;;;;;;;18.83;38.59;100743.97;4991692;28;20386;-82
2022/01/31 07:06:56;;;;;;;23.67;13.82;;;;;;;18.83;38.43;100738.59;4991866;28;20458;-83
2022/01/31 07:09:23;;;;;;;15.90;14.20;;;;;;;18.82;38.44;100735.06;4990510;28;20047;-83
2022/01/31 07:11:53;;;;;;;15.13;13.50;;;;;;;18.82;38.33;100728.84;4989424;28;20054;-84
2022/01/31 07:14:30;;;;;;;17.35;14.63;;;;;;;18.82;38.37;100724.34;4991061;28;20047;-84
2022/01/31 07:17:02;;;;;;;15.77;14.13;;;;;;;18.83;38.18;100703.72;4989354;28;20058;-84
2022/01/31 07:19:33;;;;;;;16.08;14.35;;;;;;;18.83;38.22;100690.31;4991663;28;20061;-84
2022/01/31 07:22:00;;;;;;;16.80;14.25;;;;;;;18.81;38.28;100685.09;4989701;28;20512;-83
2022/01/31 07:27:05;;;;;;;16.13;14.45;;;;;;;18.81;38.22;100693.16;4991389;28;20053;-83
2022/01/31 07:29:33;;;;;;;19.20;15.30;;;;;;;18.82;38.23;100691.31;4991379;28;20054;-83
2022/01/31 07:32:01;;;;;;;16.05;14.35;;;;;;;18.81;38.24;100682.41;4991412;28;20050;-83
2022/01/31 07:34:29;;;;;;;17.92;14.40;;;;;;;18.81;38.15;100682.41;4991389;28;20497;-83
2022/01/31 07:37:02;;;;;;;;;;;;;;;18.82;38.16;100675.22;4992083;28;20058;-83
2022/01/31 07:39:30;;;;;;;15.55;13.90;;;;;;;18.81;38.23;100668.16;4990769;28;20277;-83
2022/01/31 07:41:57;;;;;;;15.10;13.20;;;;;;;18.81;38.27;100652.06;4991450;28;20050;-83
2022/01/31 07:44:25;;;;;;;15.68;14.02;;;;;;;18.81;37.96;100644.03;4990796;28;20057;-83
2022/01/31 07:46:52;;;;;;;15.38;13.77;;;;;;;18.81;37.97;100644.88;4989259;28;20051;-83
2022/01/31 07:49:22;;;;;;;16.08;14.38;;;;;;;18.81;37.92;100646.72;4990627;28;20050;-84
2022/01/31 07:51:50;;;;;;;15.50;13.90;;;;;;;18.83;38.04;100650.09;4988402;28;20054;-84
2022/01/31 07:54:24;;;;;;;17.30;14.40;;;;;;;18.82;38.17;100643.88;4989692;28;20402;-83
2022/01/31 07:56:51;;;;;;;15.07;13.32;;;;;;;18.82;38.00;100653.75;4991440;28;20054;-83
2022/01/31 07:59:19;;;;;;;15.95;14.30;;;;;;;18.82;38.05;100659.97;4994080;28;20061;-83
2022/01/31 08:01:46;;;;;;;16.08;14.43;;;;;;;18.82;37.96;100654.59;4994701;28;20386;-83
2022/01/31 08:04:14;;;;;;;15.52;14.02;;;;;;;18.83;38.13;100642.03;4993994;28;20050;-84
2022/01/31 08:06:42;;;;;;;14.73;13.23;;;;;;;18.83;38.00;100658.13;4994026;28;20054;-84
2022/01/31 08:09:09;;;;;;;15.57;13.77;;;;;;;18.83;38.11;100644.72;4991931;28;20050;-85
2022/01/31 08:11:37;;;;;;;14.98;13.38;;;;;;;18.83;38.07;100644.72;4993946;28;20054;-83
2022/01/31 08:14:09;;;;;;;15.57;13.98;;;;;;;18.82;38.07;100635.84;4993547;28;20047;-84
2022/01/31 08:16:38;;;;;;;15.32;13.82;;;;;;;18.83;38.18;100639.38;4993955;28;20053;-83
2022/01/31 08:19:08;;;;;;;16.08;14.18;;;;;;;18.83;38.02;100639.38;4992715;28;20371;-84
2022/01/31 08:21:55;;;;;;;15.15;13.55;;;;;;;18.82;38.13;100653.75;4993883;28;20346;-84
2022/01/31 08:24:22;;;;;;;15.38;13.63;;;;;;;18.82;38.22;100659.97;4993888;28;20057;-83
2022/01/31 08:26:55;;;;;;;17.77;14.90;;;;;;;18.83;38.11;100666.19;4993260;28;20050;-84
2022/01/31 08:29:31;;;;;;;16.95;15.23;;;;;;;18.82;38.18;100678.75;4993136;28;20046;-83
2022/01/31 08:32:10;;;;;;;15.13;13.68;;;;;;;18.83;38.27;100682.28;4993819;28;20057;-82
2022/01/31 08:37:25;;;;;;;15.23;13.60;;;;;;;18.80;38.48;100683.41;4993968;28;20039;-83
2022/01/31 08:39:52;;;;;;;15.02;13.55;;;;;;;18.81;38.69;100681.56;4992883;28;20062;-82
2022/01/31 08:42:20;;;;;;;19.48;14.60;;;;;;;18.80;38.66;100678.03;4991842;28;20512;-82
2022/01/31 08:44:48;;;;;;;14.93;13.48;;;;;;;18.80;38.90;100667.31;4993543;28;20046;-81
2022/01/31 08:47:16;;;;;;;15.45;13.82;;;;;;;18.79;38.66;100649.50;4993052;28;20409;-82
2022/01/31 08:49:43;;;;;;;15.88;13.98;;;;;;;18.78;38.92;100640.63;4992817;28;20054;-81
2022/01/31 08:52:11;;;;;;;15.20;13.60;;;;;;;18.76;39.09;100626.50;4993354;28;20051;-82
2022/01/31 08:54:38;;;;;;;15.32;13.82;;;;;;;18.74;39.21;100631.13;4991095;28;20050;-81
2022/01/31 08:57:07;;;;;;;15.48;13.95;;;;;;;18.72;39.25;100616.19;4992479;28;20042;-81
2022/01/31 08:59:40;;;;;;;15.27;13.65;;;;;;;18.71;39.32;100611.78;4992896;28;20055;-81
2022/01/31 09:02:13;;;;;;;16.52;14.75;;;;;;;18.69;39.17;100595.78;4993292;28;20398;-81
2022/01/31 09:04:50;;;;;;;16.13;14.15;;;;;;;18.70;39.17;100602.88;4993340;28;20053;-81
2022/01/31 09:07:19;;;;;;;15.90;13.55;;;;;;;18.68;39.79;100591.44;4993243;28;20047;-82
2022/01/31 09:09:51;;;;;;;15.88;13.55;;;;;;;18.68;40.18;100567.28;4991827;28;20054;-85
2022/01/31 09:12:25;;;;;;;17.65;14.45;;;;;;;18.67;40.05;100565.56;4992820;28;20054;-84
2022/01/31 09:14:53;;;;;;;18.42;15.82;;;;;;;18.66;40.00;100555.00;4992000;28;20055;-82
2022/01/31 09:17:21;;;;;;;21.50;16.50;;;;;;;18.64;39.86;100549.78;4991605;28;20046;-82
2022/01/31 09:19:48;;;;;;;20.77;18.63;;;;;;;18.63;39.26;100541.84;4993013;28;20054;-82
2022/01/31 09:22:16;;;;;;;24.20;20.25;;;;;;;18.59;38.39;100545.78;4992713;28;20057;-81
2022/01/31 09:24:44;;;;;;;28.13;24.90;;;;;;;18.54;36.95;100538.97;4974574;28;20501;-83
2022/01/31 09:27:12;;;;;;;24.58;21.58;;;;;;;18.50;38.27;100532.19;4993184;28;20046;-80
2022/01/31 09:29:40;;;;;;;22.33;18.30;;;;;;;18.51;38.75;100544.63;4991457;28;20053;-80
2022/01/31 09:32:10;;;;;;;25.55;19.85;;;;;;;18.52;38.56;100545.47;4993604;28;20077;-79
2022/01/31 09:34:38;;;;;;;22.05;19.67;;;;;;;18.53;39.09;100537.28;4993307;28;20055;-80
2022/01/31 09:37:06;;;;;;;28.75;20.15;;;;;;;18.56;38.83;100520.09;4993000;28;20053;-80
2022/01/31 09:39:35;;;;;;;27.08;19.20;;;;;;;18.57;39.26;100504.88;4991123;28;20054;-79
2022/01/31 09:42:10;;;;;;;22.45;20.05;;;;;;;18.58;39.58;100493.16;4992672;28;20054;-81
2022/01/31 09:44:48;;;;;;;21.83;18.08;;;;;;;18.58;39.56;100482.44;4992839;28;20477;-83
2022/01/31 09:49:46;;;;;;;22.63;17.98;;;;;;;18.60;39.35;100485.84;4991114;28;20043;-79
2022/01/31 09:52:14;;;;;;;24.40;18.77;;;;;;;18.59;39.39;100502.88;4990412;28;20046;-79
2022/01/31 09:54:42;;;;;;;21.45;17.58;;;;;;;18.61;39.31;100500.94;4992988;28;20050;-79
2022/01/31 09:57:10;;;;;;;20.02;17.48;;;;;;;18.61;39.11;100487.53;4992132;28;20050;-79
2022/01/31 09:59:37;;;;;;;18.75;16.75;;;;;;;18.61;39.24;100480.31;4992573;28;20038;-79
2022/01/31 10:02:14;;;;;;;22.27;17.98;;;;;;;18.61;39.27;100483.00;4991851;28;20046;-79
2022/01/31 10:04:48;;;;;;;19.25;16.20;;;;;;;18.62;39.31;100460.56;4992599;28;20058;-79
2022/01/31 10:07:17;;;;;;;19.02;15.90;;;;;;;18.62;38.88;100436.44;4992284;28;20513;-79
2022/01/31 10:09:49;;;;;;;20.35;17.33;;;;;;;18.63;39.05;100431.91;4992049;28;20401;-79
2022/01/31 10:17:35;;;;;;;18.10;15.23;;;;;;;18.65;38.51;100405.84;4992559;28;20501;-79
2022/01/31 10:20:18;;;;;;;18.73;16.50;;;;;;;18.65;38.77;100400.47;4991878;28;20046;-79
2022/01/31 10:22:46;;;;;;;18.27;15.82;;;;;;;18.64;38.74;100378.19;4991875;28;20054;-79
2022/01/31 10:25:19;;;;;;;22.25;16.63;;;;;;;18.65;38.73;100373.66;4991672;28;20042;-79
2022/01/31 10:28:15;;;;;;;17.43;15.20;;;;;;;18.64;38.77;100372.81;4990127;28;20054;-80
2022/01/31 10:30:45;;;;;;;18.42;16.33;;;;;;;18.64;38.81;100372.81;4992489;28;20057;-80
2022/01/31 10:33:14;;;;;;;17.58;15.50;;;;;;;18.64;38.90;100377.34;4992164;28;20490;-79
2022/01/31 10:35:44;;;;;;;18.65;15.88;;;;;;;18.64;38.88;100377.34;4991799;28;20509;-79
2022/01/31 10:38:15;;;;;;;19.05;15.40;;;;;;;18.63;38.89;100352.34;4991506;28;20069;-79
2022/01/31 10:57:02;;;;;;;15.80;14.07;;;;;;;18.61;38.97;100318.63;4991582;28;20050;-79
2022/01/31 10:59:38;;;;;;;15.05;13.20;;;;;;;18.61;38.92;100327.50;4991503;28;20045;-79
2022/01/31 11:02:15;;;;;;;17.25;15.52;;;;;;;18.60;39.03;100328.50;4991393;28;20055;-79
2022/01/31 11:04:44;;;;;;;15.65;13.27;;;;;;;18.61;39.01;100315.94;4990021;28;20504;-79
2022/01/31 11:07:18;;;;;;;15.82;14.23;;;;;;;18.61;38.97;100305.22;4989163;28;20409;-80
2022/01/31 11:09:49;;;;;;;20.65;14.50;;;;;;;18.61;38.99;100313.25;4991542;28;20046;-79
2022/01/31 11:12:19;;;;;;;15.40;13.80;;;;;;;18.61;38.67;100310.59;4991457;28;20051;-80
2022/01/31 11:14:47;;;;;;;16.83;14.65;;;;;;;18.60;39.02;100287.44;4990492;28;20501;-79
2022/01/31 11:17:17;;;;;;;16.13;13.80;;;;;;;18.60;38.97;100285.59;4991149;28;20117;-79
2022/01/31 11:19:49;;;;;;;15.80;14.20;;;;;;;18.58;39.13;100276.84;4991249;28;20053;-79
2022/01/31 11:22:27;;;;;;;16.90;14.38;;;;;;;18.58;39.03;100270.63;4991442;28;20382;-79
2022/01/31 11:25:14;;;;;;;15.88;14.35;;;;;;;18.59;39.10;100286.56;4988971;28;20051;-80
2022/01/31 11:27:51;;;;;;;15.68;14.00;;;;;;;18.58;39.07;100276.00;4991112;28;20050;-79
2022/01/31 11:30:20;;;;;;;16.15;14.07;;;;;;;18.58;39.10;100266.13;4991331;28;20050;-79
2022/01/31 11:32:48;;;;;;;15.68;13.95;;;;;;;18.58;38.97;100251.88;4993462;28;20053;-79
2022/01/31 11:35:16;;;;;;;15.55;14.00;;;;;;;18.58;38.83;100239.31;4993988;28;20077;-79
2022/01/31 11:37:43;;;;;;;17.40;15.70;;;;;;;18.59;38.79;100226.75;4994399;28;20485;-79
2022/01/31 11:40:13;;;;;;;16.05;14.38;;;;;;;18.59;38.69;100216.03;4993819;28;20051;-79
2022/01/31 11:42:42;;;;;;;16.35;14.75;;;;;;;18.61;38.77;100214.91;4994833;28;20046;-79
2022/01/31 11:45:20;;;;;;;16.95;15.23;;;;;;;18.60;38.77;100194.47;4994155;28;20043;-79
2022/01/31 11:47:49;;;;;;;18.92;16.98;;;;;;;18.60;38.65;100177.53;4994511;28;20415;-80
2022/01/31 11:50:19;;;;;;;17.65;15.95;;;;;;;18.61;38.64;100155.09;4993739;28;20050;-79
2022/01/31 11:52:54;;;;;;;16.55;14.93;;;;;;;18.61;38.55;100152.41;4994103;28;20046;-79
2022/01/31 11:55:42;;;;;;;18.33;16.35;;;;;;;18.61;38.77;100158.63;4995018;28;20046;-79
2022/01/31 11:58:17;;;;;;;17.70;15.80;;;;;;;18.61;38.50;100157.78;4994053;28;20054;-79